sensor_id;sensor_type;location;lat;lon;timestamp;P1;durP1;ratioP1;P2;durP2;ratioP2
15899;SDS011;8048;50.644;6.184;2024-03-06T00:02:07;2.00;;;1.90;;
15899;SDS011;8048;50.644;6.184;2024-03-06T00:04:33;2.07;;;2.07;;
15899;SDS011;8048;50.644;6.184;2024-03-06T00:06:59;1.93;;;1.93;;
15899;SDS011;8048;50.644;6.184;2024-03-06T00:09:25;2.13;;;2.10;;
15899;SDS011;8048;50.644;6.184;2024-03-06T00:11:52;2.40;;;2.30;;
15899;SDS011;8048;50.644;6.184;2024-03-06T00:14:18;2.20;;;2.20;;
15899;SDS011;8048;50.644;6.184;2024-03-06T00:16:44;2.70;;;2.50;;
15899;SDS011;8048;50.644;6.184;2024-03-06T00:19:10;2.40;;;2.30;;
15899;SDS011;8048;50.644;6.184;2024-03-06T00:21:36;2.53;;;2.30;;
15899;SDS011;8048;50.644;6.184;2024-03-06T00:24:02;2.60;;;2.50;;
15899;SDS011;8048;50.644;6.184;2024-03-06T00:26:28;2.20;;;2.20;;
15899;SDS011;8048;50.644;6.184;2024-03-06T00:28:54;2.00;;;2.00;;
15899;SDS011;8048;50.644;6.184;2024-03-06T00:31:20;1.80;;;1.80;;
15899;SDS011;8048;50.644;6.184;2024-03-06T00:33:45;1.90;;;1.90;;
15899;SDS011;8048;50.644;6.184;2024-03-06T00:36:11;2.33;;;2.23;;
15899;SDS011;8048;50.644;6.184;2024-03-06T00:38:36;1.90;;;1.90;;
15899;SDS011;8048;50.644;6.184;2024-03-06T00:41:02;2.10;;;2.10;;
15899;SDS011;8048;50.644;6.184;2024-03-06T00:43:28;2.27;;;2.17;;
15899;SDS011;8048;50.644;6.184;2024-03-06T00:45:54;2.00;;;2.00;;
15899;SDS011;8048;50.644;6.184;2024-03-06T00:48:20;2.20;;;2.20;;
15899;SDS011;8048;50.644;6.184;2024-03-06T00:50:45;2.40;;;2.40;;
15899;SDS011;8048;50.644;6.184;2024-03-06T00:53:11;3.83;;;3.63;;
15899;SDS011;8048;50.644;6.184;2024-03-06T00:55:37;2.73;;;2.63;;
15899;SDS011;8048;50.644;6.184;2024-03-06T00:58:02;2.60;;;2.40;;
15899;SDS011;8048;50.644;6.184;2024-03-06T01:00:29;1.80;;;1.80;;
15899;SDS011;8048;50.644;6.184;2024-03-06T01:02:54;2.30;;;2.20;;
15899;SDS011;8048;50.644;6.184;2024-03-06T01:05:20;2.60;;;2.50;;
15899;SDS011;8048;50.644;6.184;2024-03-06T01:07:46;2.30;;;2.20;;
15899;SDS011;8048;50.644;6.184;2024-03-06T01:10:12;2.00;;;2.00;;
15899;SDS011;8048;50.644;6.184;2024-03-06T01:12:37;1.93;;;1.93;;
15899;SDS011;8048;50.644;6.184;2024-03-06T01:15:03;2.10;;;2.10;;
15899;SDS011;8048;50.644;6.184;2024-03-06T01:17:29;2.00;;;1.90;;
15899;SDS011;8048;50.644;6.184;2024-03-06T01:19:55;2.03;;;1.93;;
15899;SDS011;8048;50.644;6.184;2024-03-06T01:22:20;1.97;;;1.87;;
15899;SDS011;8048;50.644;6.184;2024-03-06T01:24:46;2.00;;;2.00;;
15899;SDS011;8048;50.644;6.184;2024-03-06T01:27:15;2.30;;;2.20;;
15899;SDS011;8048;50.644;6.184;2024-03-06T01:29:41;2.40;;;2.20;;
15899;SDS011;8048;50.644;6.184;2024-03-06T01:32:07;2.20;;;2.20;;
15899;SDS011;8048;50.644;6.184;2024-03-06T01:34:32;2.57;;;2.47;;
15899;SDS011;8048;50.644;6.184;2024-03-06T01:36:58;2.03;;;1.93;;
15899;SDS011;8048;50.644;6.184;2024-03-06T01:39:24;1.87;;;1.87;;
15899;SDS011;8048;50.644;6.184;2024-03-06T01:41:50;2.30;;;2.20;;
15899;SDS011;8048;50.644;6.184;2024-03-06T01:44:16;2.20;;;2.10;;
15899;SDS011;8048;50.644;6.184;2024-03-06T01:46:43;2.00;;;2.00;;
15899;SDS011;8048;50.644;6.184;2024-03-06T01:49:09;2.20;;;2.10;;
15899;SDS011;8048;50.644;6.184;2024-03-06T01:51:40;7.10;;;2.40;;
15899;SDS011;8048;50.644;6.184;2024-03-06T01:54:07;2.10;;;2.10;;
15899;SDS011;8048;50.644;6.184;2024-03-06T01:56:35;2.47;;;2.37;;
15899;SDS011;8048;50.644;6.184;2024-03-06T01:59:02;2.10;;;2.10;;
15899;SDS011;8048;50.644;6.184;2024-03-06T02:01:29;2.20;;;2.10;;
15899;SDS011;8048;50.644;6.184;2024-03-06T02:03:56;2.30;;;2.20;;
15899;SDS011;8048;50.644;6.184;2024-03-06T02:06:21;2.20;;;2.17;;
15899;SDS011;8048;50.644;6.184;2024-03-06T02:08:47;2.20;;;2.10;;
15899;SDS011;8048;50.644;6.184;2024-03-06T02:11:13;2.17;;;2.07;;
15899;SDS011;8048;50.644;6.184;2024-03-06T02:13:41;2.10;;;2.10;;
15899;SDS011;8048;50.644;6.184;2024-03-06T02:16:08;2.17;;;2.17;;
15899;SDS011;8048;50.644;6.184;2024-03-06T02:18:35;2.43;;;2.33;;
15899;SDS011;8048;50.644;6.184;2024-03-06T02:21:01;2.43;;;2.33;;
15899;SDS011;8048;50.644;6.184;2024-03-06T02:23:27;2.30;;;2.20;;
15899;SDS011;8048;50.644;6.184;2024-03-06T02:25:53;2.40;;;2.30;;
15899;SDS011;8048;50.644;6.184;2024-03-06T02:28:18;2.00;;;2.00;;
15899;SDS011;8048;50.644;6.184;2024-03-06T02:30:44;2.37;;;2.30;;
15899;SDS011;8048;50.644;6.184;2024-03-06T02:33:10;3.07;;;2.00;;
15899;SDS011;8048;50.644;6.184;2024-03-06T02:35:35;2.00;;;1.90;;
15899;SDS011;8048;50.644;6.184;2024-03-06T02:38:01;2.10;;;2.10;;
15899;SDS011;8048;50.644;6.184;2024-03-06T02:40:29;2.10;;;2.00;;
15899;SDS011;8048;50.644;6.184;2024-03-06T02:42:55;2.10;;;2.00;;
15899;SDS011;8048;50.644;6.184;2024-03-06T02:45:21;2.27;;;2.17;;
15899;SDS011;8048;50.644;6.184;2024-03-06T02:47:47;1.60;;;1.60;;
15899;SDS011;8048;50.644;6.184;2024-03-06T02:50:12;1.80;;;1.80;;
15899;SDS011;8048;50.644;6.184;2024-03-06T02:52:38;1.93;;;1.90;;
15899;SDS011;8048;50.644;6.184;2024-03-06T02:55:04;2.23;;;2.13;;
15899;SDS011;8048;50.644;6.184;2024-03-06T02:57:30;2.40;;;2.30;;
15899;SDS011;8048;50.644;6.184;2024-03-06T02:59:56;2.83;;;2.70;;
15899;SDS011;8048;50.644;6.184;2024-03-06T03:02:22;2.30;;;2.20;;
15899;SDS011;8048;50.644;6.184;2024-03-06T03:04:49;2.13;;;2.13;;
15899;SDS011;8048;50.644;6.184;2024-03-06T03:07:15;2.30;;;2.30;;
15899;SDS011;8048;50.644;6.184;2024-03-06T03:09:40;2.33;;;1.97;;
15899;SDS011;8048;50.644;6.184;2024-03-06T03:12:06;2.13;;;2.13;;
15899;SDS011;8048;50.644;6.184;2024-03-06T03:14:32;2.10;;;2.10;;
15899;SDS011;8048;50.644;6.184;2024-03-06T03:16:58;1.97;;;1.97;;
15899;SDS011;8048;50.644;6.184;2024-03-06T03:19:25;1.90;;;1.90;;
15899;SDS011;8048;50.644;6.184;2024-03-06T03:21:50;2.30;;;2.20;;
15899;SDS011;8048;50.644;6.184;2024-03-06T03:24:16;2.10;;;2.10;;
15899;SDS011;8048;50.644;6.184;2024-03-06T03:26:45;3.10;;;2.90;;
15899;SDS011;8048;50.644;6.184;2024-03-06T03:29:10;1.93;;;1.90;;
15899;SDS011;8048;50.644;6.184;2024-03-06T03:31:36;1.90;;;1.90;;
15899;SDS011;8048;50.644;6.184;2024-03-06T03:34:03;2.43;;;2.20;;
15899;SDS011;8048;50.644;6.184;2024-03-06T03:36:30;1.85;;;1.85;;
15899;SDS011;8048;50.644;6.184;2024-03-06T03:38:55;1.80;;;1.80;;
15899;SDS011;8048;50.644;6.184;2024-03-06T03:41:21;2.17;;;1.97;;
15899;SDS011;8048;50.644;6.184;2024-03-06T03:43:46;2.47;;;2.30;;
15899;SDS011;8048;50.644;6.184;2024-03-06T03:46:12;1.90;;;1.80;;
15899;SDS011;8048;50.644;6.184;2024-03-06T03:48:39;1.80;;;1.80;;
15899;SDS011;8048;50.644;6.184;2024-03-06T03:51:04;1.60;;;1.60;;
15899;SDS011;8048;50.644;6.184;2024-03-06T03:53:32;1.80;;;1.80;;
15899;SDS011;8048;50.644;6.184;2024-03-06T03:55:58;4.82;;;3.20;;
15899;SDS011;8048;50.644;6.184;2024-03-06T03:58:24;2.30;;;2.20;;
15899;SDS011;8048;50.644;6.184;2024-03-06T04:00:50;2.00;;;2.00;;
15899;SDS011;8048;50.644;6.184;2024-03-06T04:03:18;1.90;;;1.90;;
15899;SDS011;8048;50.644;6.184;2024-03-06T04:05:45;2.17;;;2.08;;
15899;SDS011;8048;50.644;6.184;2024-03-06T04:08:11;2.33;;;2.22;;
15899;SDS011;8048;50.644;6.184;2024-03-06T04:10:38;1.90;;;1.90;;
15899;SDS011;8048;50.644;6.184;2024-03-06T04:13:03;1.97;;;1.97;;
15899;SDS011;8048;50.644;6.184;2024-03-06T04:15:29;2.00;;;1.90;;
15899;SDS011;8048;50.644;6.184;2024-03-06T04:17:55;2.00;;;1.90;;
15899;SDS011;8048;50.644;6.184;2024-03-06T04:20:21;1.87;;;1.87;;
15899;SDS011;8048;50.644;6.184;2024-03-06T04:22:46;2.00;;;1.90;;
15899;SDS011;8048;50.644;6.184;2024-03-06T04:25:15;2.30;;;2.20;;
15899;SDS011;8048;50.644;6.184;2024-03-06T04:27:40;2.20;;;2.10;;
15899;SDS011;8048;50.644;6.184;2024-03-06T04:30:06;1.70;;;1.70;;
15899;SDS011;8048;50.644;6.184;2024-03-06T04:32:32;2.33;;;2.22;;
15899;SDS011;8048;50.644;6.184;2024-03-06T04:34:58;2.10;;;2.00;;
15899;SDS011;8048;50.644;6.184;2024-03-06T04:37:24;4.97;;;2.03;;
15899;SDS011;8048;50.644;6.184;2024-03-06T04:39:51;1.70;;;1.70;;
15899;SDS011;8048;50.644;6.184;2024-03-06T04:42:17;1.80;;;1.80;;
15899;SDS011;8048;50.644;6.184;2024-03-06T04:44:45;2.13;;;1.83;;
15899;SDS011;8048;50.644;6.184;2024-03-06T04:47:11;2.08;;;2.05;;
15899;SDS011;8048;50.644;6.184;2024-03-06T04:49:36;2.20;;;2.10;;
15899;SDS011;8048;50.644;6.184;2024-03-06T04:52:02;2.40;;;2.30;;
15899;SDS011;8048;50.644;6.184;2024-03-06T04:54:28;2.70;;;2.50;;
15899;SDS011;8048;50.644;6.184;2024-03-06T04:56:54;2.50;;;2.40;;
15899;SDS011;8048;50.644;6.184;2024-03-06T04:59:20;2.45;;;2.35;;
15899;SDS011;8048;50.644;6.184;2024-03-06T05:01:46;1.83;;;1.83;;
15899;SDS011;8048;50.644;6.184;2024-03-06T05:04:12;2.20;;;2.20;;
15899;SDS011;8048;50.644;6.184;2024-03-06T05:06:37;1.93;;;1.93;;
15899;SDS011;8048;50.644;6.184;2024-03-06T05:09:03;2.50;;;2.40;;
15899;SDS011;8048;50.644;6.184;2024-03-06T05:11:29;2.63;;;2.53;;
15899;SDS011;8048;50.644;6.184;2024-03-06T05:13:57;2.30;;;2.20;;
15899;SDS011;8048;50.644;6.184;2024-03-06T05:16:24;2.47;;;2.37;;
15899;SDS011;8048;50.644;6.184;2024-03-06T05:18:51;2.30;;;2.30;;
15899;SDS011;8048;50.644;6.184;2024-03-06T05:21:17;2.03;;;2.03;;
15899;SDS011;8048;50.644;6.184;2024-03-06T05:23:43;2.30;;;2.20;;
15899;SDS011;8048;50.644;6.184;2024-03-06T05:26:08;2.13;;;2.03;;
15899;SDS011;8048;50.644;6.184;2024-03-06T05:28:34;2.30;;;2.20;;
15899;SDS011;8048;50.644;6.184;2024-03-06T05:31:00;4.20;;;1.92;;
15899;SDS011;8048;50.644;6.184;2024-03-06T05:33:26;2.23;;;2.10;;
15899;SDS011;8048;50.644;6.184;2024-03-06T05:35:53;2.20;;;2.20;;
15899;SDS011;8048;50.644;6.184;2024-03-06T05:38:19;2.37;;;2.27;;
15899;SDS011;8048;50.644;6.184;2024-03-06T05:40:47;2.17;;;2.00;;
15899;SDS011;8048;50.644;6.184;2024-03-06T05:43:12;2.23;;;2.10;;
15899;SDS011;8048;50.644;6.184;2024-03-06T05:45:38;3.70;;;3.60;;
15899;SDS011;8048;50.644;6.184;2024-03-06T05:48:03;2.53;;;2.40;;
15899;SDS011;8048;50.644;6.184;2024-03-06T05:50:29;2.43;;;2.33;;
15899;SDS011;8048;50.644;6.184;2024-03-06T05:52:55;2.30;;;2.20;;
15899;SDS011;8048;50.644;6.184;2024-03-06T05:55:22;2.35;;;2.15;;
15899;SDS011;8048;50.644;6.184;2024-03-06T05:57:48;2.33;;;2.23;;
15899;SDS011;8048;50.644;6.184;2024-03-06T06:00:14;2.40;;;2.20;;
15899;SDS011;8048;50.644;6.184;2024-03-06T06:02:43;1.80;;;1.80;;
15899;SDS011;8048;50.644;6.184;2024-03-06T06:05:10;2.42;;;2.22;;
15899;SDS011;8048;50.644;6.184;2024-03-06T06:07:36;2.33;;;2.20;;
15899;SDS011;8048;50.644;6.184;2024-03-06T06:10:03;2.42;;;2.33;;
15899;SDS011;8048;50.644;6.184;2024-03-06T06:12:31;2.30;;;2.20;;
15899;SDS011;8048;50.644;6.184;2024-03-06T06:14:56;2.20;;;2.20;;
15899;SDS011;8048;50.644;6.184;2024-03-06T06:17:22;2.17;;;2.10;;
15899;SDS011;8048;50.644;6.184;2024-03-06T06:19:47;2.23;;;2.13;;
15899;SDS011;8048;50.644;6.184;2024-03-06T06:22:13;2.03;;;1.93;;
15899;SDS011;8048;50.644;6.184;2024-03-06T06:24:39;2.30;;;2.20;;
15899;SDS011;8048;50.644;6.184;2024-03-06T06:27:05;2.50;;;2.40;;
15899;SDS011;8048;50.644;6.184;2024-03-06T06:29:31;2.13;;;2.07;;
15899;SDS011;8048;50.644;6.184;2024-03-06T06:31:56;2.60;;;2.50;;
15899;SDS011;8048;50.644;6.184;2024-03-06T06:34:22;2.53;;;2.43;;
15899;SDS011;8048;50.644;6.184;2024-03-06T06:36:50;2.63;;;2.42;;
15899;SDS011;8048;50.644;6.184;2024-03-06T06:39:17;2.03;;;1.95;;
15899;SDS011;8048;50.644;6.184;2024-03-06T06:41:43;2.40;;;2.17;;
15899;SDS011;8048;50.644;6.184;2024-03-06T06:44:08;3.07;;;2.60;;
15899;SDS011;8048;50.644;6.184;2024-03-06T06:46:34;2.90;;;2.80;;
15899;SDS011;8048;50.644;6.184;2024-03-06T06:49:00;2.47;;;2.37;;
15899;SDS011;8048;50.644;6.184;2024-03-06T06:51:25;2.47;;;2.37;;
15899;SDS011;8048;50.644;6.184;2024-03-06T06:53:51;2.83;;;2.63;;
15899;SDS011;8048;50.644;6.184;2024-03-06T06:56:16;2.43;;;2.30;;
15899;SDS011;8048;50.644;6.184;2024-03-06T06:58:42;2.90;;;2.70;;
15899;SDS011;8048;50.644;6.184;2024-03-06T07:01:08;2.90;;;2.70;;
15899;SDS011;8048;50.644;6.184;2024-03-06T07:03:34;3.08;;;2.83;;
15899;SDS011;8048;50.644;6.184;2024-03-06T07:06:00;2.70;;;2.53;;
15899;SDS011;8048;50.644;6.184;2024-03-06T07:08:28;3.08;;;2.85;;
15899;SDS011;8048;50.644;6.184;2024-03-06T07:10:54;6.25;;;3.03;;
15899;SDS011;8048;50.644;6.184;2024-03-06T07:13:20;4.50;;;4.13;;
15899;SDS011;8048;50.644;6.184;2024-03-06T07:15:46;2.93;;;2.73;;
15899;SDS011;8048;50.644;6.184;2024-03-06T07:18:11;2.80;;;2.70;;
15899;SDS011;8048;50.644;6.184;2024-03-06T07:20:39;2.90;;;2.70;;
15899;SDS011;8048;50.644;6.184;2024-03-06T07:23:05;3.72;;;2.95;;
15899;SDS011;8048;50.644;6.184;2024-03-06T07:25:31;3.90;;;3.00;;
15899;SDS011;8048;50.644;6.184;2024-03-06T07:27:57;2.83;;;2.60;;
15899;SDS011;8048;50.644;6.184;2024-03-06T07:30:22;3.03;;;2.90;;
15899;SDS011;8048;50.644;6.184;2024-03-06T07:32:48;2.90;;;2.70;;
15899;SDS011;8048;50.644;6.184;2024-03-06T07:35:14;2.97;;;2.77;;
15899;SDS011;8048;50.644;6.184;2024-03-06T07:37:39;2.60;;;2.50;;
15899;SDS011;8048;50.644;6.184;2024-03-06T07:40:08;2.80;;;2.70;;
15899;SDS011;8048;50.644;6.184;2024-03-06T07:42:34;3.90;;;3.60;;
15899;SDS011;8048;50.644;6.184;2024-03-06T07:45:00;4.20;;;3.90;;
15899;SDS011;8048;50.644;6.184;2024-03-06T07:47:25;3.90;;;3.60;;
15899;SDS011;8048;50.644;6.184;2024-03-06T07:49:51;3.47;;;3.27;;
15899;SDS011;8048;50.644;6.184;2024-03-06T07:52:17;3.77;;;3.57;;
15899;SDS011;8048;50.644;6.184;2024-03-06T07:54:43;3.37;;;3.17;;
15899;SDS011;8048;50.644;6.184;2024-03-06T07:57:08;3.53;;;3.27;;
15899;SDS011;8048;50.644;6.184;2024-03-06T07:59:34;3.97;;;3.77;;
15899;SDS011;8048;50.644;6.184;2024-03-06T08:02:00;3.03;;;2.83;;
15899;SDS011;8048;50.644;6.184;2024-03-06T08:04:26;3.70;;;3.50;;
15899;SDS011;8048;50.644;6.184;2024-03-06T08:06:52;5.20;;;4.80;;
15899;SDS011;8048;50.644;6.184;2024-03-06T08:09:17;5.07;;;4.17;;
15899;SDS011;8048;50.644;6.184;2024-03-06T08:11:44;3.90;;;3.63;;
15899;SDS011;8048;50.644;6.184;2024-03-06T08:14:10;4.20;;;3.80;;
15899;SDS011;8048;50.644;6.184;2024-03-06T08:16:36;4.30;;;4.00;;
15899;SDS011;8048;50.644;6.184;2024-03-06T08:19:02;5.03;;;4.63;;
15899;SDS011;8048;50.644;6.184;2024-03-06T08:21:29;6.17;;;4.60;;
15899;SDS011;8048;50.644;6.184;2024-03-06T08:23:54;6.43;;;5.80;;
15899;SDS011;8048;50.644;6.184;2024-03-06T08:26:20;5.80;;;5.50;;
15899;SDS011;8048;50.644;6.184;2024-03-06T08:28:45;6.83;;;6.07;;
15899;SDS011;8048;50.644;6.184;2024-03-06T08:31:11;6.77;;;6.17;;
15899;SDS011;8048;50.644;6.184;2024-03-06T08:33:37;5.27;;;4.90;;
15899;SDS011;8048;50.644;6.184;2024-03-06T08:36:03;7.10;;;6.33;;
15899;SDS011;8048;50.644;6.184;2024-03-06T08:38:28;6.23;;;5.80;;
15899;SDS011;8048;50.644;6.184;2024-03-06T08:40:54;5.80;;;5.40;;
15899;SDS011;8048;50.644;6.184;2024-03-06T08:43:19;7.17;;;6.57;;
15899;SDS011;8048;50.644;6.184;2024-03-06T08:45:45;6.03;;;5.40;;
15899;SDS011;8048;50.644;6.184;2024-03-06T08:48:11;5.83;;;5.33;;
15899;SDS011;8048;50.644;6.184;2024-03-06T08:50:37;9.23;;;4.90;;
15899;SDS011;8048;50.644;6.184;2024-03-06T08:53:03;4.70;;;4.20;;
15899;SDS011;8048;50.644;6.184;2024-03-06T08:55:29;4.33;;;4.03;;
15899;SDS011;8048;50.644;6.184;2024-03-06T08:57:54;4.43;;;4.13;;
15899;SDS011;8048;50.644;6.184;2024-03-06T09:00:20;4.83;;;4.53;;
15899;SDS011;8048;50.644;6.184;2024-03-06T09:02:46;3.63;;;3.43;;
15899;SDS011;8048;50.644;6.184;2024-03-06T09:05:11;4.27;;;4.00;;
15899;SDS011;8048;50.644;6.184;2024-03-06T09:07:38;3.77;;;3.47;;
15899;SDS011;8048;50.644;6.184;2024-03-06T09:10:05;3.17;;;2.90;;
15899;SDS011;8048;50.644;6.184;2024-03-06T09:12:35;3.70;;;3.50;;
15899;SDS011;8048;50.644;6.184;2024-03-06T09:15:01;3.20;;;3.00;;
15899;SDS011;8048;50.644;6.184;2024-03-06T09:17:28;3.70;;;3.50;;
15899;SDS011;8048;50.644;6.184;2024-03-06T09:19:54;3.10;;;3.00;;
15899;SDS011;8048;50.644;6.184;2024-03-06T09:22:20;3.43;;;3.13;;
15899;SDS011;8048;50.644;6.184;2024-03-06T09:24:45;3.43;;;3.23;;
15899;SDS011;8048;50.644;6.184;2024-03-06T09:27:12;3.30;;;3.10;;
15899;SDS011;8048;50.644;6.184;2024-03-06T09:29:39;3.50;;;3.30;;
15899;SDS011;8048;50.644;6.184;2024-03-06T09:32:05;6.10;;;3.60;;
15899;SDS011;8048;50.644;6.184;2024-03-06T09:34:30;3.50;;;3.30;;
15899;SDS011;8048;50.644;6.184;2024-03-06T09:36:56;4.53;;;3.37;;
15899;SDS011;8048;50.644;6.184;2024-03-06T09:39:21;3.57;;;3.37;;
15899;SDS011;8048;50.644;6.184;2024-03-06T09:41:48;3.10;;;2.90;;
15899;SDS011;8048;50.644;6.184;2024-03-06T09:44:15;2.90;;;2.80;;
15899;SDS011;8048;50.644;6.184;2024-03-06T09:46:44;3.43;;;3.23;;
15899;SDS011;8048;50.644;6.184;2024-03-06T09:49:13;4.80;;;3.60;;
15899;SDS011;8048;50.644;6.184;2024-03-06T09:51:42;5.27;;;4.73;;
15899;SDS011;8048;50.644;6.184;2024-03-06T09:54:15;3.80;;;3.50;;
15899;SDS011;8048;50.644;6.184;2024-03-06T09:56:42;4.40;;;3.27;;
15899;SDS011;8048;50.644;6.184;2024-03-06T09:59:14;3.80;;;3.50;;
15899;SDS011;8048;50.644;6.184;2024-03-06T10:06:48;3.10;;;2.90;;
15899;SDS011;8048;50.644;6.184;2024-03-06T10:09:17;3.27;;;3.17;;
15899;SDS011;8048;50.644;6.184;2024-03-06T10:11:43;3.47;;;3.37;;
15899;SDS011;8048;50.644;6.184;2024-03-06T10:16:35;2.67;;;2.57;;
15899;SDS011;8048;50.644;6.184;2024-03-06T10:19:19;2.80;;;2.70;;
15899;SDS011;8048;50.644;6.184;2024-03-06T10:21:49;2.40;;;2.30;;
15899;SDS011;8048;50.644;6.184;2024-03-06T10:24:22;2.80;;;2.70;;
15899;SDS011;8048;50.644;6.184;2024-03-06T10:26:50;2.67;;;2.57;;
15899;SDS011;8048;50.644;6.184;2024-03-06T10:29:19;2.87;;;2.67;;
15899;SDS011;8048;50.644;6.184;2024-03-06T10:31:51;2.20;;;2.10;;
15899;SDS011;8048;50.644;6.184;2024-03-06T10:34:19;2.10;;;2.00;;
15899;SDS011;8048;50.644;6.184;2024-03-06T10:36:45;2.13;;;2.07;;
15899;SDS011;8048;50.644;6.184;2024-03-06T10:39:13;2.57;;;2.47;;
15899;SDS011;8048;50.644;6.184;2024-03-06T10:41:40;1.90;;;1.90;;
15899;SDS011;8048;50.644;6.184;2024-03-06T10:44:09;2.57;;;2.47;;
15899;SDS011;8048;50.644;6.184;2024-03-06T10:46:39;2.20;;;2.10;;
15899;SDS011;8048;50.644;6.184;2024-03-06T10:49:08;2.10;;;2.10;;
15899;SDS011;8048;50.644;6.184;2024-03-06T10:51:36;2.10;;;2.00;;
15899;SDS011;8048;50.644;6.184;2024-03-06T10:54:07;1.90;;;1.90;;
15899;SDS011;8048;50.644;6.184;2024-03-06T10:56:34;2.40;;;2.30;;
15899;SDS011;8048;50.644;6.184;2024-03-06T10:58:59;1.80;;;1.80;;
15899;SDS011;8048;50.644;6.184;2024-03-06T11:01:26;2.57;;;2.47;;
15899;SDS011;8048;50.644;6.184;2024-03-06T11:03:57;3.50;;;3.33;;
15899;SDS011;8048;50.644;6.184;2024-03-06T11:06:25;3.60;;;3.40;;
15899;SDS011;8048;50.644;6.184;2024-03-06T11:08:51;3.30;;;3.10;;
15899;SDS011;8048;50.644;6.184;2024-03-06T11:11:21;3.37;;;2.93;;
15899;SDS011;8048;50.644;6.184;2024-03-06T11:13:47;3.27;;;2.97;;
15899;SDS011;8048;50.644;6.184;2024-03-06T11:16:14;3.70;;;3.50;;
15899;SDS011;8048;50.644;6.184;2024-03-06T11:23:34;3.27;;;3.07;;
15899;SDS011;8048;50.644;6.184;2024-03-06T11:26:03;3.77;;;3.47;;
15899;SDS011;8048;50.644;6.184;2024-03-06T11:28:31;3.03;;;2.93;;
15899;SDS011;8048;50.644;6.184;2024-03-06T11:31:02;3.43;;;3.23;;
15899;SDS011;8048;50.644;6.184;2024-03-06T11:33:39;2.87;;;2.77;;
15899;SDS011;8048;50.644;6.184;2024-03-06T11:41:18;3.67;;;3.47;;
15899;SDS011;8048;50.644;6.184;2024-03-06T11:43:44;3.27;;;3.17;;
15899;SDS011;8048;50.644;6.184;2024-03-06T11:46:11;2.70;;;2.60;;
15899;SDS011;8048;50.644;6.184;2024-03-06T11:48:37;2.80;;;2.70;;
15899;SDS011;8048;50.644;6.184;2024-03-06T11:51:03;3.00;;;2.90;;
15899;SDS011;8048;50.644;6.184;2024-03-06T11:53:29;3.40;;;3.20;;
15899;SDS011;8048;50.644;6.184;2024-03-06T11:55:55;3.10;;;2.87;;
15899;SDS011;8048;50.644;6.184;2024-03-06T11:58:22;3.40;;;3.20;;
15899;SDS011;8048;50.644;6.184;2024-03-06T12:00:48;3.63;;;3.20;;
15899;SDS011;8048;50.644;6.184;2024-03-06T12:03:13;2.63;;;2.53;;
15899;SDS011;8048;50.644;6.184;2024-03-06T12:05:39;2.73;;;2.63;;
15899;SDS011;8048;50.644;6.184;2024-03-06T12:08:06;3.40;;;3.10;;
15899;SDS011;8048;50.644;6.184;2024-03-06T12:10:38;2.90;;;2.80;;
15899;SDS011;8048;50.644;6.184;2024-03-06T12:13:04;3.03;;;2.83;;
15899;SDS011;8048;50.644;6.184;2024-03-06T12:15:30;3.10;;;3.00;;
15899;SDS011;8048;50.644;6.184;2024-03-06T12:17:55;3.30;;;3.20;;
15899;SDS011;8048;50.644;6.184;2024-03-06T12:20:21;3.50;;;3.40;;
15899;SDS011;8048;50.644;6.184;2024-03-06T12:22:49;4.10;;;3.90;;
15899;SDS011;8048;50.644;6.184;2024-03-06T12:25:19;3.23;;;3.13;;
15899;SDS011;8048;50.644;6.184;2024-03-06T12:27:48;3.60;;;3.30;;
15899;SDS011;8048;50.644;6.184;2024-03-06T12:30:21;3.70;;;3.40;;
15899;SDS011;8048;50.644;6.184;2024-03-06T12:32:57;3.50;;;3.30;;
15899;SDS011;8048;50.644;6.184;2024-03-06T12:35:24;3.37;;;3.07;;
15899;SDS011;8048;50.644;6.184;2024-03-06T12:37:51;3.67;;;3.37;;
15899;SDS011;8048;50.644;6.184;2024-03-06T12:40:17;3.30;;;3.10;;
15899;SDS011;8048;50.644;6.184;2024-03-06T12:42:44;3.83;;;3.63;;
15899;SDS011;8048;50.644;6.184;2024-03-06T12:45:11;4.27;;;4.03;;
15899;SDS011;8048;50.644;6.184;2024-03-06T12:47:40;3.77;;;3.57;;
15899;SDS011;8048;50.644;6.184;2024-03-06T12:50:10;3.37;;;3.17;;
15899;SDS011;8048;50.644;6.184;2024-03-06T12:52:37;3.20;;;3.10;;
15899;SDS011;8048;50.644;6.184;2024-03-06T12:55:03;3.10;;;3.00;;
15899;SDS011;8048;50.644;6.184;2024-03-06T12:57:32;4.00;;;3.40;;
15899;SDS011;8048;50.644;6.184;2024-03-06T12:59:58;3.27;;;3.07;;
15899;SDS011;8048;50.644;6.184;2024-03-06T13:02:24;2.80;;;2.70;;
15899;SDS011;8048;50.644;6.184;2024-03-06T13:04:50;3.17;;;3.07;;
15899;SDS011;8048;50.644;6.184;2024-03-06T13:07:16;3.10;;;2.90;;
15899;SDS011;8048;50.644;6.184;2024-03-06T13:09:42;2.90;;;2.80;;
15899;SDS011;8048;50.644;6.184;2024-03-06T13:12:07;3.57;;;3.27;;
15899;SDS011;8048;50.644;6.184;2024-03-06T13:14:33;2.70;;;2.60;;
15899;SDS011;8048;50.644;6.184;2024-03-06T13:16:59;3.30;;;3.10;;
15899;SDS011;8048;50.644;6.184;2024-03-06T13:19:25;3.47;;;3.37;;
15899;SDS011;8048;50.644;6.184;2024-03-06T13:21:51;3.50;;;3.23;;
15899;SDS011;8048;50.644;6.184;2024-03-06T13:24:17;4.77;;;4.43;;
15899;SDS011;8048;50.644;6.184;2024-03-06T13:26:44;3.50;;;3.30;;
15899;SDS011;8048;50.644;6.184;2024-03-06T13:29:13;5.23;;;4.83;;
15899;SDS011;8048;50.644;6.184;2024-03-06T13:31:39;5.00;;;4.70;;
15899;SDS011;8048;50.644;6.184;2024-03-06T13:34:05;5.87;;;5.20;;
15899;SDS011;8048;50.644;6.184;2024-03-06T13:36:30;6.30;;;5.70;;
15899;SDS011;8048;50.644;6.184;2024-03-06T13:38:56;5.50;;;5.20;;
15899;SDS011;8048;50.644;6.184;2024-03-06T13:41:22;5.87;;;5.37;;
15899;SDS011;8048;50.644;6.184;2024-03-06T13:43:48;4.50;;;4.30;;
15899;SDS011;8048;50.644;6.184;2024-03-06T13:46:14;6.57;;;5.00;;
15899;SDS011;8048;50.644;6.184;2024-03-06T13:48:40;4.73;;;4.43;;
15899;SDS011;8048;50.644;6.184;2024-03-06T13:51:05;6.07;;;5.43;;
15899;SDS011;8048;50.644;6.184;2024-03-06T13:53:31;4.87;;;4.47;;
15899;SDS011;8048;50.644;6.184;2024-03-06T13:55:57;6.17;;;5.57;;
15899;SDS011;8048;50.644;6.184;2024-03-06T13:58:23;6.00;;;5.70;;
15899;SDS011;8048;50.644;6.184;2024-03-06T14:00:48;6.27;;;5.97;;
15899;SDS011;8048;50.644;6.184;2024-03-06T14:03:14;9.07;;;8.57;;
15899;SDS011;8048;50.644;6.184;2024-03-06T14:05:40;4.70;;;4.50;;
15899;SDS011;8048;50.644;6.184;2024-03-06T14:08:06;4.97;;;4.77;;
15899;SDS011;8048;50.644;6.184;2024-03-06T14:10:32;4.67;;;4.40;;
15899;SDS011;8048;50.644;6.184;2024-03-06T14:13:01;6.43;;;5.50;;
15899;SDS011;8048;50.644;6.184;2024-03-06T14:15:27;5.77;;;5.27;;
15899;SDS011;8048;50.644;6.184;2024-03-06T14:17:53;6.17;;;5.57;;
15899;SDS011;8048;50.644;6.184;2024-03-06T14:20:19;9.70;;;4.90;;
15899;SDS011;8048;50.644;6.184;2024-03-06T14:22:45;6.60;;;6.03;;
15899;SDS011;8048;50.644;6.184;2024-03-06T14:25:11;6.60;;;6.17;;
15899;SDS011;8048;50.644;6.184;2024-03-06T14:27:37;5.40;;;5.00;;
15899;SDS011;8048;50.644;6.184;2024-03-06T14:30:03;4.80;;;4.40;;
15899;SDS011;8048;50.644;6.184;2024-03-06T14:32:32;5.30;;;4.90;;
15899;SDS011;8048;50.644;6.184;2024-03-06T14:34:58;5.13;;;4.83;;
15899;SDS011;8048;50.644;6.184;2024-03-06T14:37:23;5.03;;;4.73;;
15899;SDS011;8048;50.644;6.184;2024-03-06T14:39:49;4.60;;;4.30;;
15899;SDS011;8048;50.644;6.184;2024-03-06T14:42:16;5.83;;;5.43;;
15899;SDS011;8048;50.644;6.184;2024-03-06T14:44:42;5.63;;;5.10;;
15899;SDS011;8048;50.644;6.184;2024-03-06T14:47:11;6.10;;;5.70;;
15899;SDS011;8048;50.644;6.184;2024-03-06T14:49:37;7.63;;;7.13;;
15899;SDS011;8048;50.644;6.184;2024-03-06T14:52:03;5.50;;;5.10;;
15899;SDS011;8048;50.644;6.184;2024-03-06T14:54:28;4.40;;;4.10;;
15899;SDS011;8048;50.644;6.184;2024-03-06T14:56:54;10.03;;;9.23;;
15899;SDS011;8048;50.644;6.184;2024-03-06T14:59:23;7.73;;;7.10;;
15899;SDS011;8048;50.644;6.184;2024-03-06T15:01:49;13.23;;;11.90;;
15899;SDS011;8048;50.644;6.184;2024-03-06T15:04:16;5.20;;;4.80;;
15899;SDS011;8048;50.644;6.184;2024-03-06T15:06:42;7.00;;;5.37;;
15899;SDS011;8048;50.644;6.184;2024-03-06T15:09:08;4.90;;;4.50;;
15899;SDS011;8048;50.644;6.184;2024-03-06T15:11:37;5.20;;;4.87;;
15899;SDS011;8048;50.644;6.184;2024-03-06T15:14:03;5.17;;;4.67;;